Авиационная погода в Брянске

Регион: 
Погода METAR: 
UUBP 170000Z AUTO 04002MPS 9999 NCD 16/09 Q1009
Время наблюдения
2021-05-17T00:00:00Z
Температура C
16.0
Точка росы
9.0
Направление ветра
40
Скорость ветра (узлы)
4
Метео видимость
6.21
Явления погоды
Условия полета
VFR
Аэропорт подробнее: